AirNav   Pilot Hours Calculator
 
 1587 users online  

03OK Sahoma Lake Airport
Sapulpa, Oklahoma, USA

GOING TO SAPULPA?


FAA INFORMATION EFFECTIVE 05 DECEMBER 2019

Location

FAA Identifier: 03OK
Lat/Long: 36-02-28.3100N 096-09-41.0000W
36-02.471833N 096-09.683333W
36.0411972,-96.1613889
(estimated)
Elevation: 890 ft. / 271 m (estimated)
Variation: 06E (1990)
From city: 5 miles SE of SAPULPA, OK
Time zone: UTC -6 (UTC -5 during Daylight Saving Time)
Zip code: 74066

Airport Operations

Airport use: Private use. Permission required prior to landing
Activation date: 02/1993
Control tower: no
ARTCC: KANSAS CITY CENTER
FSS: MC ALESTER FLIGHT SERVICE STATION
Attendance: UNATNDD
Segmented circle: no

Airport Communications

WX AWOS-3 at OWP (8 nm N): 118.325 (918-246-2635)
WX ASOS at RVS (9 nm E): PHONE 918-299-0740
WX ASOS at TUL (16 nm NE): PHONE 918-831-6772

Nearby radio navigation aids

VOR radial/distance  VOR name  Freq  Var
TULr235/20.3TULSA VORTAC114.4008E
OKMr317/25.4OKMULGEE VOR/DME114.9008E

 
NDB name  Hdg/Dist  Freq  Var  ID
WILLIAM POGUE177/7.936206EOWP --- .-- .--.
OILLR253/13.633803ETU - ..-
CUSHING068/31.124205ECUH -.-. ..- ....
HENRYETTA345/38.926704EHET .... . -

Airport Services

Runway Information

Runway 18/36

Dimensions: 1200 x 50 ft. / 366 x 15 m
Surface: turf
RUNWAY 18  RUNWAY 36
Traffic pattern: leftleft
Obstructions: 50 ft. pline, 1400 ft. from runwaynone

Airport Ownership and Management from official FAA records

Ownership: Privately-owned
Owner: DAN L. HUDSON
740 N. ROSS
SAPULPA, OK 74066
Phone 918-224-7884

Additional Remarks

FOR CD CTC TULSA APCH AT 918-831-6714/6720.

Instrument Procedures

There are no published instrument procedures at 03OK.

Some nearby airports with instrument procedures:

KOWP - William R Pogue Municipal Airport (8 nm N)
KRVS - Richard Lloyd Jones Jr Airport (9 nm E)
KTUL - Tulsa International Airport (16 nm NE)
3F7 - Jones Memorial Airport (19 nm SW)
KOKM - Okmulgee Regional Airport (25 nm SE)
 
Loc | Ops | Rwys | IFR | FBO | Links
Com | Nav | Svcs | Stats | Notes
Area around 03OK (Sahoma Lake Airport)
 
Road maps at: MapQuest Bing Google
 
Aerial photo
No photo
 
Sectional chart

 
Airport distance calculator
Flying to Sahoma Lake Airport? Find the distance to fly.

From to 03OK

Sunrise and sunset
Times for 05-Dec-2019
 Local
(UTC-6)
 Zulu
(UTC)
Morning civil twilight06:5312:53
Sunrise07:2113:21
Sunset17:0923:09
Evening civil twilight17:3723:37

Current date and time
Zulu (UTC)  05-Dec-2019 20:03:44
Local (UTC-6)  05-Dec-2019 14:03:44
 
METAR
KOWP 
8nm N 
051955Z AUTO 18014G17KT 10SM CLR 22/03 A2980 RMK AO2 T02180028
KRVS 
9nm E 
051953Z 18014KT 10SM CLR 22/04 A2980 RMK AO2 PK WND 16026/1925 SLP099 T02170039
KTUL 
17nm NE 
051953Z 18015G25KT 10SM FEW080 FEW250 21/04 A2979 RMK AO2 PK WND 18027/1857 SLP083 T02110039
TAF
KRVS 
9nm E 
051731Z 0518/0618 18013G22KT P6SM SKC FM060000 15004KT P6SM BKN050 PROB30 0604/0609 5SM -SHRA BKN025 FM060900 36012G20KT P6SM BKN020
KTUL 
17nm NE 
051731Z 0518/0618 17014G23KT P6SM SKC FM060000 15005KT P6SM BKN050 PROB30 0604/0609 5SM -SHRA BKN025 FM060900 35014G22KT P6SM BKN020
NOTAMs
Click for the latest NOTAMs
NOTAMs are issued by the DoD/FAA and will open in a separate window not controlled by AirNav.

 

 
 

Would you like to see your business listed on this page?

 If your business provides an interesting product or service to pilots, flight crews, aircraft, or users of the Sahoma Lake Airport, you should consider listing it here.  To start the listing process, click on the button below
 
Add a business
 

Other Pages about Sahoma Lake Airport

Update a link
 
Copyright © AirNav, LLC. All rights reserved. Privacy Policy  Contact